Time;durP1;ratioP1;P1;durP2;ratioP2;P2;SDS_P1;SDS_P2;PMS_P1;PMS_P2;Temp;Humidity;BMP_temperature;BMP_pressure;BME280_temperature;BME280_humidity;BME280_pressure;Samples;Min_cycle;Max_cycle;Signal;HPM_P1;HPM_P2
2021/06/28 00:01:20;;;;;;;1.83;0.85;;;;;;;13.17;100.00;100032.56;6287420;22;20022;-44
2021/06/28 00:04:23;;;;;;;1.48;0.45;;;;;;;13.15;100.00;100021.88;6287360;22;20030;-44
2021/06/28 00:07:27;;;;;;;1.40;0.43;;;;;;;13.14;100.00;100023.16;6287393;22;20027;-44
2021/06/28 00:10:31;;;;;;;1.77;0.70;;;;;;;13.17;100.00;100032.56;6286593;22;20015;-44
2021/06/28 00:13:39;;;;;;;1.35;0.77;;;;;;;13.19;100.00;100030.06;6277506;22;20352;-44
2021/06/28 00:16:43;;;;;;;4.53;1.17;;;;;;;13.24;100.00;100023.75;6287326;22;20022;-44
2021/06/28 00:19:46;;;;;;;2.58;1.17;;;;;;;13.28;100.00;100016.69;6287654;22;20081;-44
2021/06/28 00:22:50;;;;;;;5.70;1.15;;;;;;;13.35;100.00;100012.72;6286703;22;20068;-44
2021/06/28 00:25:53;;;;;;;4.07;2.08;;;;;;;13.26;100.00;100024.81;6287144;22;20022;-44
2021/06/28 00:28:56;;;;;;;5.93;1.65;;;;;;;13.19;100.00;100018.88;6286813;22;20340;-44
2021/06/28 00:32:00;;;;;;;7.43;1.65;;;;;;;13.21;100.00;100017.13;6287443;22;20023;-44
2021/06/28 00:35:05;;;;;;;14.85;2.05;;;;;;;13.24;100.00;100002.16;6267670;22;20027;-44
2021/06/28 00:38:10;;;;;;;7.55;2.38;;;;;;;13.29;100.00;100009.09;6286880;22;20015;-44
2021/06/28 00:41:14;;;;;;;6.78;1.98;;;;;;;13.22;100.00;100007.47;6286806;22;20047;-44
2021/06/28 00:44:17;;;;;;;5.00;2.22;;;;;;;13.21;100.00;100005.94;6287138;22;20019;-44
2021/06/28 00:47:21;;;;;;;6.80;1.85;;;;;;;13.33;100.00;100007.63;6286568;22;20027;-44
2021/06/28 00:50:26;;;;;;;6.80;2.20;;;;;;;13.24;100.00;100013.34;6268475;22;20624;-44
2021/06/28 00:53:31;;;;;;;5.78;2.17;;;;;;;13.22;100.00;100001.88;6286877;22;20030;-44
2021/06/28 00:56:34;;;;;;;7.78;2.75;;;;;;;13.21;100.00;99994.00;6286846;22;20035;-44
2021/06/28 00:59:40;;;;;;;7.40;2.05;;;;;;;13.20;100.00;99998.81;6286312;22;20337;-44
2021/06/28 01:02:43;;;;;;;10.45;2.70;;;;;;;13.23;100.00;99995.03;6267915;22;20031;-44
2021/06/28 01:05:48;;;;;;;7.18;2.95;;;;;;;13.20;100.00;99995.25;6286450;22;20023;-44
2021/06/28 01:08:51;;;;;;;7.50;1.45;;;;;;;13.21;100.00;99991.19;6286592;22;20482;-44
2021/06/28 01:11:55;;;;;;;4.90;1.80;;;;;;;13.20;100.00;99993.22;6276910;22;20026;-44
2021/06/28 01:14:59;;;;;;;11.95;2.10;;;;;;;13.18;100.00;99995.75;6287034;22;20030;-44
2021/06/28 01:18:04;;;;;;;7.20;2.40;;;;;;;13.16;100.00;100003.06;6286759;22;20471;-44
2021/06/28 01:21:10;;;;;;;5.22;1.25;;;;;;;13.12;100.00;100006.09;6303642;22;20027;-44
2021/06/28 01:24:14;;;;;;;1.50;0.93;;;;;;;13.13;100.00;100010.41;6286093;22;20019;-44
2021/06/28 01:27:18;;;;;;;4.13;1.08;;;;;;;13.13;100.00;99999.22;6286706;22;20022;-44
2021/06/28 01:30:26;;;;;;;2.50;1.17;;;;;;;13.13;100.00;99999.22;6286607;22;20043;-44
2021/06/28 01:33:31;;;;;;;3.60;1.58;;;;;;;13.12;100.00;100008.13;6285765;22;20030;-44
2021/06/28 01:36:35;;;;;;;2.10;1.13;;;;;;;13.15;100.00;99993.13;6286191;22;20030;-44
2021/06/28 01:39:39;;;;;;;2.05;1.10;;;;;;;13.11;100.00;99990.56;6286826;22;20018;-44
2021/06/28 01:42:45;;;;;;;2.47;1.17;;;;;;;13.06;100.00;99993.31;6286469;22;20023;-44
2021/06/28 01:45:50;;;;;;;2.83;0.93;;;;;;;13.05;100.00;99986.94;6286617;22;20337;-44
2021/06/28 01:48:53;;;;;;;3.42;0.75;;;;;;;13.07;100.00;99990.00;6285958;22;20026;-44
2021/06/28 01:51:57;;;;;;;5.32;1.55;;;;;;;13.11;100.00;99984.97;6286442;22;20015;-44
2021/06/28 01:55:02;;;;;;;2.83;1.38;;;;;;;13.10;100.00;99972.25;6286177;22;20042;-44
2021/06/28 01:58:09;;;;;;;2.47;1.23;;;;;;;13.06;100.00;99971.69;6286286;22;20030;-44
2021/06/28 02:01:12;;;;;;;1.42;0.82;;;;;;;13.02;100.00;99954.31;6285316;22;20027;-44
2021/06/28 02:04:19;;;;;;;3.58;1.63;;;;;;;12.97;100.00;99952.25;6286157;22;20026;-44
2021/06/28 02:07:24;;;;;;;2.17;0.80;;;;;;;12.98;100.00;99934.19;6285654;22;20027;-44
2021/06/28 02:10:28;;;;;;;1.25;0.75;;;;;;;13.03;100.00;99933.50;6286366;22;20023;-44
2021/06/28 02:13:36;;;;;;;3.95;1.52;;;;;;;12.99;100.00;99918.19;6275775;22;20026;-44
2021/06/28 02:16:44;;;;;;;6.65;1.23;;;;;;;12.96;100.00;99905.97;6286179;22;20513;-44
2021/06/28 02:19:48;;;;;;;1.77;1.35;;;;;;;12.94;100.00;99902.91;6286020;22;20026;-44
2021/06/28 02:22:52;;;;;;;5.70;0.73;;;;;;;12.90;100.00;99907.94;6280419;22;20022;-44
2021/06/28 02:25:59;;;;;;;2.63;1.23;;;;;;;12.88;100.00;99910.44;6285900;22;20066;-44
2021/06/28 02:29:03;;;;;;;2.08;1.08;;;;;;;12.92;100.00;99911.00;6286312;22;20329;-44
2021/06/28 02:32:07;;;;;;;3.13;1.38;;;;;;;12.89;100.00;99914.78;6286083;22;20027;-44
2021/06/28 02:35:12;;;;;;;4.25;1.02;;;;;;;12.86;100.00;99908.13;6286075;22;20042;-44
2021/06/28 02:38:17;;;;;;;1.80;0.52;;;;;;;12.86;100.00;99902.53;6285539;22;20039;-44
2021/06/28 02:41:21;;;;;;;4.63;1.33;;;;;;;12.85;100.00;99894.66;6285753;22;20035;-44
2021/06/28 02:44:25;;;;;;;4.95;1.08;;;;;;;12.83;100.00;99881.19;6285854;22;20027;-44
2021/06/28 02:47:28;;;;;;;1.63;0.63;;;;;;;12.83;100.00;99869.22;6286292;22;20023;-44
2021/06/28 02:50:32;;;;;;;2.15;1.33;;;;;;;12.81;100.00;99877.34;6284729;22;20026;-44
2021/06/28 02:53:36;;;;;;;3.58;0.90;;;;;;;12.78;100.00;99884.66;6285400;22;20081;-44
2021/06/28 02:56:39;;;;;;;3.95;1.60;;;;;;;12.76;100.00;99875.22;6285068;22;20042;-44
2021/06/28 02:59:43;;;;;;;1.30;0.70;;;;;;;12.73;100.00;99879.03;6285921;22;20026;-44
2021/06/28 03:02:46;;;;;;;1.88;0.80;;;;;;;12.70;100.00;99889.16;6285566;22;20027;-44
2021/06/28 03:05:50;;;;;;;1.77;1.27;;;;;;;12.68;100.00;99879.72;6285973;22;20022;-44
2021/06/28 03:08:53;;;;;;;2.35;0.88;;;;;;;12.65;100.00;99880.69;6285754;22;20022;-44
2021/06/28 03:11:56;;;;;;;1.50;1.10;;;;;;;12.60;100.00;99889.78;6282819;22;20026;-44
2021/06/28 03:15:00;;;;;;;3.13;0.85;;;;;;;12.59;100.00;99882.63;6285762;22;20467;-44
2021/06/28 03:18:04;;;;;;;9.07;1.08;;;;;;;12.60;100.00;99881.41;6285899;22;20027;-43
2021/06/28 03:21:10;;;;;;;2.30;1.23;;;;;;;12.55;100.00;99876.50;6285769;22;20027;-44
2021/06/28 03:24:14;;;;;;;2.50;0.43;;;;;;;12.54;100.00;99880.56;6286029;22;20027;-43
2021/06/28 03:27:18;;;;;;;3.60;0.82;;;;;;;12.54;100.00;99883.34;6286104;22;20336;-43
2021/06/28 03:30:22;;;;;;;5.65;2.10;;;;;;;12.56;100.00;99872.47;6285836;22;20022;-43
2021/06/28 03:33:26;;;;;;;3.78;1.23;;;;;;;12.62;100.00;99870.50;6286539;22;20210;-44
2021/06/28 03:36:30;;;;;;;8.98;1.05;;;;;;;12.62;100.00;99864.91;6287935;22;20030;-44
2021/06/28 03:39:33;;;;;;;4.93;1.05;;;;;;;12.58;100.00;99861.56;6288024;22;20435;-43
2021/06/28 03:42:37;;;;;;;1.50;0.70;;;;;;;12.55;100.00;99865.31;6287838;22;20026;-44
2021/06/28 03:45:41;;;;;;;2.33;0.60;;;;;;;12.49;100.00;99861.69;6288005;22;20022;-43
2021/06/28 03:48:44;;;;;;;2.75;0.73;;;;;;;12.45;100.00;99861.13;6287825;22;20027;-43
2021/06/28 03:51:48;;;;;;;2.20;0.63;;;;;;;12.37;100.00;99865.59;6287648;22;20015;-44
2021/06/28 03:54:51;;;;;;;2.83;1.23;;;;;;;12.34;100.00;99872.16;6287671;22;20026;-43
2021/06/28 03:57:55;;;;;;;2.33;1.00;;;;;;;12.32;100.00;99877.47;6287898;22;20026;-44
2021/06/28 04:00:58;;;;;;;1.50;1.08;;;;;;;12.32;100.00;99869.09;6287271;22;20438;-44
2021/06/28 04:13:16;;;;;;;1.17;0.50;;;;;;;12.24;100.00;99873.53;6287060;22;20022;-44
2021/06/28 04:16:19;;;;;;;2.88;1.30;;;;;;;12.24;100.00;99873.53;6287389;22;20026;-44
2021/06/28 04:19:22;;;;;;;1.80;0.70;;;;;;;12.25;100.00;99875.06;6287279;22;20333;-44
2021/06/28 04:22:26;;;;;;;0.90;0.65;;;;;;;12.26;100.00;99887.78;6287438;22;20031;-44
2021/06/28 04:25:30;;;;;;;2.17;1.13;;;;;;;12.28;100.00;99888.06;6287212;22;20027;-43
2021/06/28 04:28:33;;;;;;;1.70;1.45;;;;;;;12.30;100.00;99896.72;6287458;22;20026;-43
2021/06/28 04:31:37;;;;;;;4.43;1.15;;;;;;;12.33;100.00;99904.91;6287036;22;20022;-43
2021/06/28 04:34:44;;;;;;;1.67;0.95;;;;;;;12.38;100.00;99911.81;6287077;22;20023;-43
2021/06/28 04:37:50;;;;;;;3.20;1.95;;;;;;;12.41;100.00;99922.03;6287057;22;20455;-43
2021/06/28 04:40:54;;;;;;;2.72;0.77;;;;;;;12.47;100.00;99925.66;6282745;22;20467;-43
2021/06/28 04:44:00;;;;;;;4.93;2.28;;;;;;;12.50;100.00;99919.09;6286948;22;20027;-43
2021/06/28 04:47:03;;;;;;;3.83;1.65;;;;;;;12.55;100.00;99912.81;6287101;22;20023;-43
2021/06/28 04:50:09;;;;;;;4.22;1.25;;;;;;;12.62;100.00;99901.22;6287038;22;20479;-43
2021/06/28 04:53:12;;;;;;;6.70;0.63;;;;;;;12.65;100.00;99898.22;6286908;22;20027;-44
2021/06/28 04:56:16;;;;;;;3.72;1.42;;;;;;;12.69;100.00;99892.44;6286720;22;20030;-44
2021/06/28 04:59:19;;;;;;;4.70;1.08;;;;;;;12.72;100.00;99906.19;6287277;22;20023;-43
2021/06/28 05:02:22;;;;;;;9.98;1.80;;;;;;;12.73;100.00;99937.69;6286475;22;20019;-43
2021/06/28 05:05:26;;;;;;;9.38;1.80;;;;;;;12.75;100.00;99946.38;6287191;22;20332;-43
2021/06/28 05:08:29;;;;;;;1.88;0.68;;;;;;;12.73;100.00;99943.28;6286944;22;20027;-43
2021/06/28 05:11:33;;;;;;;5.82;1.00;;;;;;;12.72;100.00;99958.50;6285598;22;20026;-44
2021/06/28 05:14:38;;;;;;;2.67;0.55;;;;;;;12.62;100.00;99976.66;6286737;22;20027;-44
2021/06/28 05:17:43;;;;;;;6.93;1.02;;;;;;;12.58;100.00;99992.88;6286753;22;20471;-44
2021/06/28 05:20:47;;;;;;;2.67;0.60;;;;;;;12.55;100.00;99993.81;6286140;22;20042;-44
2021/06/28 05:23:51;;;;;;;15.25;2.42;;;;;;;12.52;100.00;99989.19;6286665;22;20027;-44
2021/06/28 05:26:55;;;;;;;1.95;0.55;;;;;;;12.51;100.00;99984.88;6286474;22;20479;-44
2021/06/28 05:29:58;;;;;;;2.92;0.70;;;;;;;12.51;100.00;99990.47;6286931;22;20440;-44
2021/06/28 05:33:02;;;;;;;2.20;0.93;;;;;;;12.49;100.00;99965.81;6286474;22;20023;-44
2021/06/28 05:36:06;;;;;;;1.98;0.90;;;;;;;12.48;100.00;99943.94;6286796;22;20075;-44
2021/06/28 05:39:09;;;;;;;1.67;0.80;;;;;;;12.48;100.00;99922.38;6286490;22;20042;-44
2021/06/28 05:42:13;;;;;;;0.77;0.70;;;;;;;12.49;100.00;99923.16;6286728;22;20023;-44
2021/06/28 05:45:17;;;;;;;1.35;0.68;;;;;;;12.45;100.00;99923.34;6286319;22;20023;-45
2021/06/28 05:48:20;;;;;;;3.33;1.00;;;;;;;12.44;100.00;99935.00;6286542;22;20027;-44
2021/06/28 05:51:24;;;;;;;4.50;1.30;;;;;;;12.43;100.00;99916.72;6286439;22;20019;-44
2021/06/28 05:54:28;;;;;;;4.60;1.48;;;;;;;12.43;100.00;99936.28;6286761;22;20023;-44
2021/06/28 05:57:32;;;;;;;5.70;1.05;;;;;;;12.49;100.00;99956.66;6286226;22;20026;-44
2021/06/28 06:00:35;;;;;;;4.65;1.00;;;;;;;12.51;100.00;99959.75;6286347;22;20027;-44
2021/06/28 06:03:39;;;;;;;2.33;0.82;;;;;;;12.50;100.00;99958.19;6286199;22;20022;-44
2021/06/28 06:06:43;;;;;;;3.00;1.42;;;;;;;12.49;100.00;99939.91;6286472;22;20023;-45
2021/06/28 06:09:46;;;;;;;1.42;0.63;;;;;;;12.46;100.00;99929.69;6286484;22;20047;-45
2021/06/28 06:12:49;;;;;;;3.30;1.50;;;;;;;12.54;100.00;99934.38;6279593;22;20030;-45
2021/06/28 06:15:54;;;;;;;2.28;0.65;;;;;;;12.63;100.00;99944.66;6285152;22;20027;-45
2021/06/28 06:18:58;;;;;;;1.85;1.02;;;;;;;12.64;100.00;99952.56;6286349;22;20031;-45
2021/06/28 06:22:02;;;;;;;1.25;0.47;;;;;;;12.57;100.00;99968.97;6285940;22;20042;-45
2021/06/28 06:25:06;;;;;;;3.75;1.23;;;;;;;12.53;100.00;99971.19;6286363;22;20022;-45
2021/06/28 06:28:11;;;;;;;2.58;1.13;;;;;;;12.45;100.00;99967.28;6285955;22;20379;-45
2021/06/28 06:31:14;;;;;;;3.80;1.15;;;;;;;12.42;100.00;99973.81;6286266;22;20018;-45
2021/06/28 06:34:17;;;;;;;2.83;1.40;;;;;;;12.43;100.00;99969.78;6285676;22;20026;-44
2021/06/28 06:37:21;;;;;;;5.07;1.40;;;;;;;12.44;100.00;99974.88;6285897;22;20336;-44
2021/06/28 06:40:25;;;;;;;4.18;1.40;;;;;;;12.44;100.00;99971.31;6285443;22;20665;-45
2021/06/28 06:43:28;;;;;;;2.15;0.73;;;;;;;12.43;100.00;99964.19;6302615;22;20035;-45
2021/06/28 06:46:32;;;;;;;2.65;1.33;;;;;;;12.39;100.00;99969.22;6285447;22;20026;-45
2021/06/28 06:49:36;;;;;;;1.33;0.65;;;;;;;12.39;100.00;99964.38;6285954;22;20022;-45
2021/06/28 06:52:41;;;;;;;3.58;1.02;;;;;;;12.41;100.00;99955.53;6285114;22;20463;-45
2021/06/28 06:55:47;;;;;;;2.13;0.82;;;;;;;12.46;100.00;99963.22;6284133;22;20030;-45
2021/06/28 06:58:52;;;;;;;3.08;1.27;;;;;;;12.47;100.00;99945.22;6284988;22;20029;-45
2021/06/28 07:01:55;;;;;;;1.90;1.02;;;;;;;12.49;100.00;99948.28;6285424;22;20023;-45
2021/06/28 07:09:16;;;;;;;1.38;0.45;;;;;;;12.57;100.00;99985.72;6286618;22;20027;-45
2021/06/28 07:12:19;;;;;;;2.03;0.85;;;;;;;12.61;100.00;100008.66;6282818;22;20023;-44
2021/06/28 07:15:23;;;;;;;3.22;1.10;;;;;;;12.62;100.00;100004.59;6287655;22;20038;-45
2021/06/28 07:18:27;;;;;;;3.25;0.93;;;;;;;12.68;100.00;99988.69;6287316;22;20042;-45
2021/06/28 07:21:34;;;;;;;3.58;1.02;;;;;;;12.89;100.00;99979.06;6286600;22;20023;-45
2021/06/28 07:24:38;;;;;;;3.92;1.17;;;;;;;12.76;100.00;99982.19;6287272;22;20030;-45
2021/06/28 07:27:43;;;;;;;5.25;1.92;;;;;;;12.81;100.00;99973.13;6287256;22;20117;-45
2021/06/28 07:30:46;;;;;;;6.93;2.35;;;;;;;12.88;100.00;99960.78;6286862;22;20027;-45
2021/06/28 07:33:50;;;;;;;7.20;1.63;;;;;;;13.04;100.00;99967.84;6287296;22;20019;-44
2021/06/28 07:36:54;;;;;;;4.95;1.83;;;;;;;13.08;100.00;99966.38;6287345;22;20047;-45
2021/06/28 07:39:57;;;;;;;6.28;1.70;;;;;;;13.15;100.00;99957.56;6287747;22;20332;-45
2021/06/28 07:43:00;;;;;;;6.47;1.83;;;;;;;13.29;100.00;99950.34;6287003;22;20043;-44
2021/06/28 07:46:05;;;;;;;9.82;2.70;;;;;;;13.26;100.00;99952.09;6287576;22;20027;-44
2021/06/28 07:49:08;;;;;;;6.97;1.95;;;;;;;13.27;100.00;99942.47;6287612;22;20416;-45
2021/06/28 07:52:12;;;;;;;7.85;2.20;;;;;;;13.27;100.00;99925.69;6287459;22;20019;-44
2021/06/28 07:55:16;;;;;;;4.85;1.90;;;;;;;13.32;100.00;99927.75;6287063;22;20027;-44
2021/06/28 07:58:20;;;;;;;7.00;2.50;;;;;;;13.36;100.00;99927.56;6287353;22;20022;-44
2021/06/28 08:01:24;;;;;;;5.95;1.55;;;;;;;13.41;100.00;99930.41;6287508;22;20027;-44
2021/06/28 08:04:27;;;;;;;5.30;2.03;;;;;;;13.47;100.00;99928.41;6287565;22;20022;-44
2021/06/28 08:07:31;;;;;;;6.07;1.73;;;;;;;13.53;100.00;99942.47;6287131;22;20781;-44
2021/06/28 08:10:34;;;;;;;4.55;1.95;;;;;;;13.64;100.00;99946.13;6287468;22;20022;-44
2021/06/28 08:13:44;;;;;;;5.53;1.60;;;;;;;13.74;100.00;99965.56;6277193;22;20027;-44
2021/06/28 08:16:48;;;;;;;4.90;1.20;;;;;;;13.74;100.00;99965.56;6287465;22;20031;-44
2021/06/28 08:19:52;;;;;;;5.38;1.65;;;;;;;13.73;100.00;99958.44;6285837;22;20054;-44
2021/06/28 08:22:55;;;;;;;3.92;1.73;;;;;;;13.72;100.00;99954.88;6287492;22;20023;-44
2021/06/28 08:25:58;;;;;;;4.57;1.50;;;;;;;13.77;100.00;99956.97;6286988;22;20022;-44
2021/06/28 08:29:04;;;;;;;5.30;2.10;;;;;;;13.88;100.00;99967.50;6287626;22;20019;-45
2021/06/28 08:32:07;;;;;;;4.85;1.80;;;;;;;13.95;100.00;99972.63;6286717;22;20034;-45
2021/06/28 08:35:11;;;;;;;3.50;1.63;;;;;;;14.06;100.00;99955.91;6287394;22;20042;-45
2021/06/28 08:38:14;;;;;;;6.25;2.08;;;;;;;14.22;100.00;99958.09;6286702;22;20336;-46
2021/06/28 08:41:19;;;;;;;5.97;2.35;;;;;;;14.39;100.00;99951.38;6287298;22;20348;-46
2021/06/28 08:44:23;;;;;;;3.83;1.52;;;;;;;14.75;100.00;99954.66;6286691;22;20027;-45
2021/06/28 08:47:28;;;;;;;5.80;2.10;;;;;;;15.15;100.00;99946.66;6287138;22;20026;-45
2021/06/28 08:50:34;;;;;;;3.72;1.92;;;;;;;15.85;100.00;99943.00;6286737;22;20026;-45
2021/06/28 08:53:38;;;;;;;3.92;2.00;;;;;;;16.55;100.00;99948.34;6287175;22;20018;-45
2021/06/28 08:56:44;;;;;;;3.00;1.75;;;;;;;16.95;100.00;99949.75;6286546;22;20455;-46
2021/06/28 08:59:49;;;;;;;6.07;2.35;;;;;;;17.26;100.00;99944.50;6287104;22;20026;-46
2021/06/28 09:02:59;;;;;;;6.35;2.72;;;;;;;17.40;100.00;99946.22;6286824;22;20035;-46
2021/06/28 09:06:06;;;;;;;5.00;1.10;;;;;;;17.61;100.00;99935.38;6287113;22;20345;-46
2021/06/28 09:09:12;;;;;;;4.45;2.00;;;;;;;17.98;100.00;99941.25;6286347;22;20023;-46
2021/06/28 09:12:17;;;;;;;6.75;2.33;;;;;;;18.26;100.00;99943.81;6282649;22;20023;-45
2021/06/28 09:15:33;;;;;;;3.05;1.58;;;;;;;18.78;100.00;99943.56;6286955;22;20023;-46
2021/06/28 09:18:36;;;;;;;3.42;1.30;;;;;;;18.61;100.00;99949.41;6286608;22;20043;-46
2021/06/28 09:21:51;;;;;;;5.53;1.25;;;;;;;18.33;100.00;99942.47;6285681;22;20340;-45
2021/06/28 09:24:55;;;;;;;5.35;2.10;;;;;;;18.42;100.00;99950.59;6286777;22;20043;-46
2021/06/28 09:27:59;;;;;;;7.00;2.42;;;;;;;18.62;100.00;99953.00;6286433;22;20026;-46
2021/06/28 09:31:03;;;;;;;4.13;1.63;;;;;;;18.62;100.00;99953.78;6286384;22;20026;-46
2021/06/28 09:34:19;;;;;;;5.50;1.98;;;;;;;18.52;100.00;99958.22;6285452;22;20026;-46
2021/06/28 09:37:27;;;;;;;6.75;2.38;;;;;;;18.27;100.00;99962.28;6286444;22;20026;-46
2021/06/28 09:40:30;;;;;;;8.30;2.42;;;;;;;17.83;100.00;99952.13;6286347;22;20025;-46
2021/06/28 09:43:34;;;;;;;6.85;1.90;;;;;;;17.60;100.00;99962.03;6286723;22;20329;-46
2021/06/28 09:46:37;;;;;;;9.63;2.47;;;;;;;17.38;100.00;99973.38;6286121;22;20022;-46
2021/06/28 09:50:17;;;;;;;6.55;1.90;;;;;;;17.27;100.00;99959.34;6286363;22;20030;-46
2021/06/28 09:53:30;;;;;;;6.53;2.28;;;;;;;17.34;100.00;99967.25;6286024;22;20018;-46
2021/06/28 09:56:42;;;;;;;4.32;2.05;;;;;;;17.41;100.00;99969.53;6286211;22;20023;-46
2021/06/28 09:59:45;;;;;;;6.18;1.73;;;;;;;17.04;100.00;99977.63;6286198;22;20353;-46
2021/06/28 10:02:49;;;;;;;3.38;1.13;;;;;;;16.98;100.00;99969.19;6286260;22;20031;-46
2021/06/28 10:06:09;;;;;;;4.97;2.25;;;;;;;16.94;100.00;99973.53;6285424;22;20031;-46
2021/06/28 10:09:12;;;;;;;3.05;1.40;;;;;;;16.84;100.00;99975.13;6285233;22;20046;-44
2021/06/28 10:12:21;;;;;;;3.55;1.25;;;;;;;16.53;100.00;99968.53;6281619;22;20027;-44
2021/06/28 10:15:29;;;;;;;3.50;1.27;;;;;;;16.23;100.00;99967.53;6286365;22;20022;-44
2021/06/28 10:18:33;;;;;;;4.57;1.75;;;;;;;16.09;100.00;99974.16;6286069;22;20031;-44
2021/06/28 10:21:38;;;;;;;3.25;2.15;;;;;;;15.94;100.00;99976.44;6285575;22;20030;-44
2021/06/28 10:24:41;;;;;;;5.07;1.17;;;;;;;15.77;100.00;99975.66;6285237;22;20129;-44
2021/06/28 10:27:46;;;;;;;1.83;0.45;;;;;;;15.72;100.00;99973.63;6286030;22;20022;-44
2021/06/28 10:30:50;;;;;;;8.20;1.30;;;;;;;15.69;100.00;99986.66;6284832;22;20046;-44
2021/06/28 10:33:58;;;;;;;2.85;1.30;;;;;;;15.58;100.00;99983.03;6285946;22;20022;-44
2021/06/28 10:37:03;;;;;;;1.48;0.57;;;;;;;15.49;100.00;99983.25;6286032;22;20026;-44
2021/06/28 10:40:07;;;;;;;1.23;0.57;;;;;;;15.36;100.00;99982.94;6286318;22;20022;-44
2021/06/28 10:43:40;;;;;;;4.43;1.60;;;;;;;15.36;100.00;99980.13;6284346;22;20019;-44
2021/06/28 10:46:47;;;;;;;3.88;1.30;;;;;;;15.34;100.00;99975.03;6285802;22;20067;-44
2021/06/28 10:49:52;;;;;;;1.48;0.60;;;;;;;15.29;100.00;99972.22;6285795;22;20026;-44
2021/06/28 10:52:55;;;;;;;4.47;1.02;;;;;;;15.29;100.00;99975.03;6281868;22;20023;-44
2021/06/28 10:56:47;;;;;;;3.35;1.08;;;;;;;15.31;100.00;99966.88;6285550;22;20340;-44
2021/06/28 10:59:27;;;;;;;2.95;0.40;;;;;;;15.31;100.00;99973.22;6285384;22;20026;-44
2021/06/28 11:02:35;;;;;;;0.85;0.60;;;;;;;15.29;100.00;99966.59;6285667;22;20026;-44
2021/06/28 11:06:18;;;;;;;3.80;1.35;;;;;;;15.33;100.00;99970.72;6285831;22;20042;-44
2021/06/28 11:09:48;;;;;;;2.10;0.80;;;;;;;15.32;100.00;99971.97;6285671;22;20042;-44
2021/06/28 11:13:38;;;;;;;3.42;1.65;;;;;;;15.19;100.00;99971.66;6279293;22;20022;-44
2021/06/28 11:17:11;;;;;;;1.35;0.45;;;;;;;15.10;100.00;99971.88;6286020;22;20620;-44
2021/06/28 11:20:29;;;;;;;2.53;0.93;;;;;;;14.98;100.00;99971.06;6285796;22;20027;-44
2021/06/28 11:23:33;;;;;;;8.07;1.25;;;;;;;14.93;100.00;99977.41;6285503;22;20336;-44
2021/06/28 11:26:37;;;;;;;2.05;0.85;;;;;;;15.00;100.00;99971.34;6285681;22;20022;-44
2021/06/28 11:29:51;;;;;;;2.35;1.25;;;;;;;15.11;100.00;99967.81;6285915;22;20027;-44
2021/06/28 11:32:58;;;;;;;3.08;1.30;;;;;;;15.17;100.00;99969.38;6285411;22;20460;-44
2021/06/28 11:36:01;;;;;;;1.98;0.95;;;;;;;15.17;100.00;99969.38;6285054;22;20047;-44
2021/06/28 11:39:27;;;;;;;7.15;0.82;;;;;;;15.12;100.00;99966.53;6285002;22;20463;-44
2021/06/28 11:42:37;;;;;;;1.63;0.40;;;;;;;15.02;100.00;99968.81;6285312;22;20030;-44
2021/06/28 11:45:52;;;;;;;1.48;0.77;;;;;;;14.93;100.00;99969.00;6285354;22;20455;-44
2021/06/28 11:48:58;;;;;;;2.13;0.98;;;;;;;14.86;100.00;99971.50;6285353;22;20022;-44
2021/06/28 11:52:02;;;;;;;1.25;0.70;;;;;;;14.75;100.00;99966.59;6285438;22;20023;-44
2021/06/28 11:55:06;;;;;;;2.65;1.30;;;;;;;14.69;100.00;99971.41;6286683;22;20023;-44
2021/06/28 11:58:09;;;;;;;0.82;0.57;;;;;;;14.64;100.00;99966.53;6286982;22;20027;-44
2021/06/28 12:01:13;;;;;;;2.50;1.00;;;;;;;14.56;100.00;99971.09;6268319;22;20026;-45
2021/06/28 12:04:22;;;;;;;1.42;0.70;;;;;;;14.48;100.00;99964.41;6287326;22;20027;-44
2021/06/28 12:07:31;;;;;;;3.15;1.08;;;;;;;14.43;100.00;99979.16;6287594;22;20356;-45
2021/06/28 12:10:34;;;;;;;1.65;0.45;;;;;;;14.43;100.00;99974.31;6268690;22;20023;-45
2021/06/28 12:13:41;;;;;;;1.33;1.15;;;;;;;14.42;100.00;99977.63;6247412;22;20027;-45
2021/06/28 12:16:46;;;;;;;2.55;0.88;;;;;;;14.47;100.00;99978.94;6228397;23;20023;-45
2021/06/28 12:20:19;;;;;;;0.35;0.32;;;;;;;14.47;100.00;99979.69;6230509;23;20019;-46
2021/06/28 12:23:24;;;;;;;5.65;0.93;;;;;;;14.57;100.00;99978.25;6224755;23;20464;-45
2021/06/28 12:26:27;;;;;;;2.40;0.88;;;;;;;14.64;100.00;99982.63;6236043;23;20028;-45
2021/06/28 12:29:37;;;;;;;2.25;0.85;;;;;;;14.63;100.00;99981.84;6254364;23;20023;-45
2021/06/28 12:32:46;;;;;;;1.30;0.50;;;;;;;14.68;100.00;99983.91;6235869;23;20031;-46
2021/06/28 12:35:58;;;;;;;2.22;0.82;;;;;;;14.66;100.00;99986.44;6254365;23;20333;-46
2021/06/28 12:39:02;;;;;;;1.90;0.60;;;;;;;14.64;100.00;99994.56;6254453;23;20432;-46
2021/06/28 12:42:18;;;;;;;1.92;0.88;;;;;;;14.61;100.00;99995.59;6254286;23;20082;-47
2021/06/28 12:45:32;;;;;;;1.45;0.82;;;;;;;14.62;100.00;99996.38;6254360;23;20023;-47
2021/06/28 12:48:36;;;;;;;1.88;0.57;;;;;;;14.56;100.00;99999.13;6235316;23;20073;-47
2021/06/28 12:51:40;;;;;;;0.85;0.50;;;;;;;14.54;100.00;99996.03;6254307;23;20027;-47
2021/06/28 12:55:15;;;;;;;3.20;0.90;;;;;;;14.54;100.00;100004.44;6254093;23;20023;-48
2021/06/28 12:58:19;;;;;;;2.83;0.55;;;;;;;14.54;100.00;99996.03;6254313;23;20023;-48
2021/06/28 13:01:33;;;;;;;1.55;1.08;;;;;;;14.43;100.00;100007.16;6235408;23;20031;-47
2021/06/28 13:04:39;;;;;;;2.00;0.55;;;;;;;14.43;100.00;100012.78;6254245;23;20027;-47
2021/06/28 13:07:43;;;;;;;2.03;0.85;;;;;;;14.35;100.00;100003.28;6253959;23;20043;-47
2021/06/28 13:11:11;;;;;;;3.47;0.95;;;;;;;14.41;100.00;100009.72;6231927;23;20030;-47
2021/06/28 13:14:25;;;;;;;3.85;0.85;;;;;;;14.26;100.00;100015.44;6301555;22;20345;-47
2021/06/28 13:17:31;;;;;;;0.88;0.40;;;;;;;14.23;100.00;100015.63;6284887;22;20475;-48
2021/06/28 13:20:37;;;;;;;2.25;0.85;;;;;;;14.23;100.00;100012.84;6285060;22;20360;-47
2021/06/28 13:23:41;;;;;;;3.20;1.10;;;;;;;14.21;100.00;100023.75;6284281;22;20031;-47
2021/06/28 13:26:47;;;;;;;3.75;1.42;;;;;;;14.21;100.00;100018.16;6283289;22;20027;-47
2021/06/28 13:29:51;;;;;;;6.38;1.88;;;;;;;14.16;100.00;100021.72;6284638;22;20019;-47
2021/06/28 13:33:14;;;;;;;3.10;1.17;;;;;;;14.18;100.00;100024.78;6283527;22;20046;-47
2021/06/28 13:36:18;;;;;;;2.80;1.35;;;;;;;14.24;100.00;100022.78;6283189;22;20083;-47
2021/06/28 13:39:35;;;;;;;2.55;1.13;;;;;;;14.27;100.00;100033.75;6283210;22;20047;-47
2021/06/28 13:42:52;;;;;;;3.42;1.05;;;;;;;14.28;100.00;100032.50;6301063;22;20026;-47
2021/06/28 13:45:56;;;;;;;1.60;1.30;;;;;;;14.23;100.00;100032.44;6283729;22;20023;-48
2021/06/28 13:49:14;;;;;;;8.45;0.77;;;;;;;14.30;100.00;100029.22;6283296;22;20589;-48
2021/06/28 13:52:19;;;;;;;1.95;0.65;;;;;;;14.33;100.00;100031.81;6283317;22;20023;-48
2021/06/28 13:55:23;;;;;;;7.07;1.25;;;;;;;14.41;100.00;100040.53;6300842;22;20023;-48
2021/06/28 13:58:29;;;;;;;3.67;1.15;;;;;;;14.38;100.00;100041.50;6283508;22;20030;-48
2021/06/28 14:01:33;;;;;;;3.75;1.25;;;;;;;14.38;100.00;100045.09;6264890;22;20471;-47
2021/06/28 14:04:36;;;;;;;4.63;1.25;;;;;;;14.47;100.00;100051.78;6301191;22;20030;-48
2021/06/28 14:07:40;;;;;;;4.30;1.65;;;;;;;14.47;100.00;100055.34;6284325;22;20452;-48
2021/06/28 14:10:45;;;;;;;2.88;0.98;;;;;;;14.37;100.00;100051.97;6301338;22;20027;-48
2021/06/28 14:13:48;;;;;;;2.30;0.85;;;;;;;14.34;100.00;100049.38;6290711;22;20026;-48
2021/06/28 14:16:52;;;;;;;3.40;1.48;;;;;;;14.24;100.00;100051.56;6284331;22;20202;-48
2021/06/28 14:19:55;;;;;;;4.38;1.67;;;;;;;14.21;100.00;100054.56;6280945;22;20022;-47
2021/06/28 14:22:59;;;;;;;4.38;1.75;;;;;;;14.20;100.00;100051.03;6283120;22;20034;-48
2021/06/28 14:26:03;;;;;;;3.22;1.33;;;;;;;14.19;100.00;100054.31;6299657;22;20075;-46
2021/06/28 14:33:24;;;;;;;6.28;1.30;;;;;;;13.97;100.00;100070.91;6282267;22;20024;-47
2021/06/28 14:36:27;;;;;;;1.17;0.40;;;;;;;13.81;100.00;100068.69;6282349;22;20042;-47
2021/06/28 14:39:32;;;;;;;4.15;1.30;;;;;;;13.62;100.00;100076.63;6281535;22;20026;-47
2021/06/28 14:42:35;;;;;;;1.15;0.85;;;;;;;13.50;100.00;100078.53;6282810;22;20042;-47